Capitao Eneas, Brazil
Current Conditions -  °F | °C
As of 6:00 PM on Friday 24 Oct 2014 (Local Time) from SBMK Reporting Station
Scattered Clouds Scattered Clouds  
Wind Chill: 90°   Ceiling: Unl
Heat Index: 90°   Visibility: 6mi
Dew Point: 48°   Wind: 6mph
Humidity: 24%   Direction: 90°E
Pressure: 29.88"   Gusts: NA
Location:  16.32°S, 43.71°W
Report Text: SBMK 242000Z 09005KT 9999 FEW048 FEW055TCU SCT080 32/09 Q1012
Loading
Personal Weather Stations






























Interactive Weather Map
Tropical Storm Tracking
New forecast layout! Learn more

10-Day Weather Forecast

Advertisements
Track Severe Weather on mobile